createdAt,value
2018-11-14T00:00:22.373Z,6.55
2018-11-14T00:02:51.565Z,6.67
2018-11-14T00:05:20.796Z,6.95
2018-11-14T00:07:50.025Z,7.33
2018-11-14T00:10:20.054Z,7.03
2018-11-14T00:12:48.893Z,6.10
2018-11-14T00:15:19.389Z,6.70
2018-11-14T00:17:48.976Z,6.22
2018-11-14T00:20:18.489Z,8.13
2018-11-14T00:22:48.735Z,6.75
2018-11-14T00:25:17.978Z,6.25
2018-11-14T00:27:47.217Z,6.47
2018-11-14T00:30:21.734Z,6.67
2018-11-14T00:32:51.189Z,5.42
2018-11-14T00:35:20.579Z,8.60
2018-11-14T00:37:50.054Z,7.70
2018-11-14T00:40:20.139Z,5.87
2018-11-14T00:42:49.841Z,6.97
2018-11-14T00:45:20.223Z,5.60
2018-11-14T00:47:49.996Z,5.83
2018-11-14T00:50:19.532Z,7.65
2018-11-14T00:52:49.107Z,6.20
2018-11-14T00:55:19.438Z,7.47
2018-11-14T00:57:49.475Z,9.00
2018-11-14T01:00:19.933Z,7.50
2018-11-14T01:02:49.082Z,6.97
2018-11-14T01:05:18.627Z,6.58
2018-11-14T01:07:47.860Z,6.35
2018-11-14T01:10:18.096Z,6.00
2018-11-14T01:12:47.698Z,8.25
2018-11-14T01:15:19.087Z,6.78
2018-11-14T01:17:48.173Z,5.85
2018-11-14T01:20:18.457Z,6.17
2018-11-14T01:22:47.763Z,5.78
2018-11-14T01:25:17.910Z,5.08
2018-11-14T01:27:47.213Z,7.78
2018-11-14T01:30:19.119Z,6.53
2018-11-14T01:32:48.790Z,7.00
2018-11-14T01:35:18.416Z,6.10
2018-11-14T01:37:47.642Z,4.45
2018-11-14T01:40:18.721Z,6.58
2018-11-14T01:42:50.012Z,6.40
2018-11-14T01:45:19.517Z,6.45
2018-11-14T01:47:48.830Z,6.22
2018-11-14T01:50:18.320Z,5.28
2018-11-14T01:52:47.993Z,6.67
2018-11-14T01:55:18.401Z,7.05
2018-11-14T01:57:47.556Z,6.92
2018-11-14T02:00:18.091Z,5.17
2018-11-14T02:02:47.295Z,6.70
2018-11-14T02:05:16.590Z,4.90
2018-11-14T02:11:07.031Z,9.00
2018-11-14T02:13:36.144Z,4.92
2018-11-14T02:16:05.820Z,5.33
2018-11-14T02:18:34.918Z,4.45
2018-11-14T02:21:04.013Z,4.78
2018-11-14T02:23:32.996Z,3.42
2018-11-14T02:26:02.016Z,5.72
2018-11-14T02:28:31.109Z,7.42
2018-11-14T02:31:00.200Z,4.92
2018-11-14T02:33:30.084Z,5.70
2018-11-14T02:35:59.180Z,6.08
2018-11-14T02:38:28.329Z,7.80
2018-11-14T02:40:57.543Z,10.70
2018-11-14T02:43:26.687Z,7.37
2018-11-14T02:45:56.086Z,5.72
2018-11-14T02:48:25.319Z,5.80
2018-11-14T02:50:59.756Z,6.47
2018-11-14T02:53:28.940Z,5.70
2018-11-14T02:56:05.383Z,4.65
2018-11-14T02:58:34.343Z,5.03
2018-11-14T03:01:03.365Z,6.67
2018-11-14T03:03:32.487Z,3.92
2018-11-14T03:06:01.656Z,5.92
2018-11-14T03:08:30.938Z,5.10
2018-11-14T03:11:00.002Z,5.55
2018-11-14T03:13:29.020Z,8.98
2018-11-14T03:15:58.073Z,4.92
2018-11-14T03:18:27.209Z,6.42
2018-11-14T03:20:56.343Z,4.90
2018-11-14T03:23:25.421Z,5.30
2018-11-14T03:25:54.451Z,4.30
2018-11-14T03:28:23.624Z,5.00
2018-11-14T03:30:52.813Z,4.15
2018-11-14T03:33:22.013Z,4.60
2018-11-14T03:35:56.575Z,3.60
2018-11-14T03:38:25.641Z,3.35
2018-11-14T03:40:54.591Z,4.12
2018-11-14T03:43:23.859Z,3.35
2018-11-14T03:45:52.972Z,3.37
2018-11-14T03:48:22.416Z,3.10
2018-11-14T03:50:51.506Z,5.05
2018-11-14T03:53:20.577Z,5.60
2018-11-14T03:55:49.717Z,5.35
2018-11-14T03:58:18.839Z,4.60
2018-11-14T04:00:48.002Z,4.08
2018-11-14T04:03:17.511Z,4.28
2018-11-14T04:05:46.803Z,3.35
2018-11-14T04:08:15.889Z,4.78
2018-11-14T04:10:45.123Z,3.45
2018-11-14T04:13:14.525Z,3.75
2018-11-14T04:15:43.580Z,6.05
2018-11-14T04:18:12.809Z,3.85
2018-11-14T04:20:41.902Z,2.72
2018-11-14T04:23:10.996Z,2.75
2018-11-14T04:25:40.161Z,4.17
2018-11-14T04:28:09.316Z,4.08
2018-11-14T04:30:38.248Z,5.00
2018-11-14T04:33:07.359Z,3.50
2018-11-14T04:35:36.477Z,4.72
2018-11-14T04:38:05.552Z,3.92
2018-11-14T04:40:34.852Z,7.22
2018-11-14T04:43:04.073Z,4.30
2018-11-14T04:45:33.201Z,4.20
2018-11-14T04:48:02.536Z,5.05
2018-11-14T04:50:31.877Z,5.25
2018-11-14T04:53:01.011Z,4.90
2018-11-14T04:55:30.232Z,4.37
2018-11-14T04:57:59.376Z,5.92
2018-11-14T05:00:28.532Z,4.37
2018-11-14T05:02:57.753Z,5.55
2018-11-14T05:05:27.151Z,4.12
2018-11-14T05:07:56.265Z,6.78
2018-11-14T05:10:26.587Z,5.03
2018-11-14T05:12:55.688Z,5.45
2018-11-14T05:15:25.794Z,4.55
2018-11-14T05:17:55.145Z,5.70
2018-11-14T05:20:24.236Z,5.87
2018-11-14T05:22:53.452Z,8.98
2018-11-14T05:25:22.743Z,7.47
2018-11-14T05:27:52.076Z,5.72
2018-11-14T05:30:22.270Z,4.55
2018-11-14T05:32:51.822Z,5.53
2018-11-14T05:35:20.773Z,6.95
2018-11-14T05:37:50.146Z,5.35
2018-11-14T05:40:20.396Z,5.55
2018-11-14T05:42:50.186Z,5.15
2018-11-14T05:45:21.695Z,6.85
2018-11-14T05:47:50.785Z,5.28
2018-11-14T05:50:20.819Z,6.85
2018-11-14T05:52:50.219Z,7.40
2018-11-14T05:55:19.494Z,5.28
2018-11-14T05:57:48.437Z,7.05
2018-11-14T06:00:22.615Z,5.40
2018-11-14T06:02:51.889Z,5.78
2018-11-14T06:05:21.093Z,3.58
2018-11-14T06:07:50.077Z,4.95
2018-11-14T06:10:19.943Z,5.45
2018-11-14T06:12:49.576Z,3.87
2018-11-14T06:15:19.770Z,5.58
2018-11-14T06:17:49.070Z,4.78
2018-11-14T06:20:20.134Z,4.45
2018-11-14T06:22:50.363Z,4.83
2018-11-14T06:25:29.795Z,5.85
2018-11-14T06:27:59.687Z,7.37
2018-11-14T06:30:29.020Z,5.60
2018-11-14T06:32:58.493Z,5.55
2018-11-14T06:35:27.631Z,8.83
2018-11-14T06:37:57.537Z,11.70
2018-11-14T06:40:27.012Z,16.20
2018-11-14T06:42:56.180Z,10.23
2018-11-14T06:45:26.472Z,10.65
2018-11-14T06:47:56.784Z,11.10
2018-11-14T06:50:26.068Z,7.95
2018-11-14T06:52:58.609Z,9.80
2018-11-14T06:55:27.845Z,9.70
2018-11-14T06:57:57.147Z,14.53
2018-11-14T07:00:41.124Z,9.48
2018-11-14T07:03:10.199Z,12.00
2018-11-14T07:05:39.204Z,12.13
2018-11-14T07:08:08.068Z,7.95
2018-11-14T07:10:37.648Z,7.90
2018-11-14T07:13:08.120Z,10.40
2018-11-14T07:15:37.778Z,5.78
2018-11-14T07:18:07.682Z,7.65
2018-11-14T07:20:38.919Z,8.25
2018-11-14T07:23:08.131Z,11.45
2018-11-14T07:25:37.309Z,14.80
2018-11-14T07:28:06.309Z,8.90
2018-11-14T07:30:35.847Z,10.08
2018-11-14T07:33:06.216Z,6.87
2018-11-14T07:35:35.491Z,10.48
2018-11-14T07:38:25.953Z,5.97
2018-11-14T07:40:55.135Z,10.00
2018-11-14T07:43:24.250Z,7.65
2018-11-14T07:45:53.357Z,7.47
2018-11-14T07:48:22.525Z,6.05
2018-11-14T07:50:51.746Z,5.62
2018-11-14T07:53:21.328Z,8.83
2018-11-14T07:55:50.437Z,5.50
2018-11-14T07:58:19.632Z,7.90
2018-11-14T08:00:48.666Z,7.17
2018-11-14T08:03:18.045Z,3.70
2018-11-14T08:05:47.192Z,5.60
2018-11-14T08:08:16.415Z,6.58
2018-11-14T08:10:45.638Z,6.95
2018-11-14T08:13:14.575Z,4.60
2018-11-14T08:15:44.879Z,8.10
2018-11-14T08:18:13.957Z,5.22
2018-11-14T08:20:43.358Z,5.75
2018-11-14T08:23:12.535Z,6.55
2018-11-14T08:25:41.863Z,5.37
2018-11-14T08:28:11.461Z,6.37
2018-11-14T08:30:40.667Z,4.80
2018-11-14T08:33:09.844Z,5.28
2018-11-14T08:35:39.121Z,6.08
2018-11-14T08:38:08.357Z,6.40
2018-11-14T08:40:38.099Z,4.15
2018-11-14T08:43:07.703Z,5.00
2018-11-14T08:45:36.850Z,6.55
2018-11-14T08:48:06.196Z,5.55
2018-11-14T08:50:35.426Z,7.58
2018-11-14T08:53:05.260Z,5.92
2018-11-14T08:55:34.691Z,5.85
2018-11-14T08:58:04.056Z,5.00
2018-11-14T09:00:33.495Z,7.37
2018-11-14T09:03:02.654Z,6.60
2018-11-14T09:05:32.074Z,4.25
2018-11-14T09:08:01.563Z,7.58
2018-11-14T09:10:30.744Z,5.10
2018-11-14T09:13:00.086Z,4.22
2018-11-14T09:15:29.174Z,4.15
2018-11-14T09:17:58.389Z,6.00
2018-11-14T09:20:28.577Z,3.98
2018-11-14T09:22:58.754Z,5.35
2018-11-14T09:25:28.967Z,4.95
2018-11-14T09:27:58.295Z,5.42
2018-11-14T09:30:27.821Z,3.72
2018-11-14T09:32:57.398Z,5.55
2018-11-14T09:35:27.149Z,6.50
2018-11-14T09:37:57.445Z,5.75
2018-11-14T09:40:27.721Z,6.58
2018-11-14T09:42:57.110Z,3.52
2018-11-14T09:45:27.696Z,4.45
2018-11-14T09:47:56.929Z,5.65
2018-11-14T09:50:32.954Z,4.35
2018-11-14T09:53:03.520Z,5.95
2018-11-14T09:55:32.741Z,4.92
2018-11-14T09:58:01.889Z,5.95
2018-11-14T10:00:32.532Z,4.75
2018-11-14T10:03:16.894Z,4.83
2018-11-14T10:05:46.147Z,4.67
2018-11-14T10:08:16.431Z,4.97
2018-11-14T10:10:45.808Z,5.33
2018-11-14T10:13:15.014Z,5.10
2018-11-14T10:15:44.417Z,3.50
2018-11-14T10:18:13.445Z,4.17
2018-11-14T10:20:43.198Z,2.62
2018-11-14T10:23:12.430Z,3.92
2018-11-14T10:25:41.690Z,6.25
2018-11-14T10:28:12.503Z,4.17
2018-11-14T10:30:41.931Z,7.33
2018-11-14T10:33:11.143Z,4.78
2018-11-14T10:35:41.198Z,3.87
2018-11-14T10:38:10.537Z,5.25
2018-11-14T10:40:39.704Z,4.30
2018-11-14T10:43:08.994Z,4.00
2018-11-14T10:45:38.205Z,4.50
2018-11-14T10:48:07.800Z,4.97
2018-11-14T10:50:36.892Z,4.90
2018-11-14T10:53:06.466Z,5.08
2018-11-14T10:55:35.697Z,3.83
2018-11-14T10:58:05.372Z,3.95
2018-11-14T11:00:39.703Z,3.17
2018-11-14T11:03:16.947Z,3.65
2018-11-14T11:05:53.464Z,2.65
2018-11-14T11:08:24.478Z,4.08
2018-11-14T11:10:58.902Z,4.53
2018-11-14T11:13:33.987Z,4.00
2018-11-14T11:16:08.561Z,3.58
2018-11-14T11:18:38.198Z,4.47
2018-11-14T11:21:08.903Z,3.25
2018-11-14T11:23:38.157Z,3.98
2018-11-14T11:26:07.328Z,3.85
2018-11-14T11:28:36.534Z,4.10
2018-11-14T11:31:06.061Z,4.60
2018-11-14T11:33:36.255Z,4.15
2018-11-14T11:36:05.634Z,3.58
2018-11-14T11:38:34.718Z,4.37
2018-11-14T11:41:04.044Z,3.60
2018-11-14T11:43:33.232Z,4.05
2018-11-14T11:46:02.508Z,3.72
2018-11-14T11:48:31.721Z,4.30
2018-11-14T11:51:00.852Z,3.15
2018-11-14T11:53:30.107Z,3.67
2018-11-14T11:55:59.660Z,3.20
2018-11-14T11:58:29.050Z,4.70
2018-11-14T12:00:58.132Z,4.92
2018-11-14T12:03:27.333Z,4.95
2018-11-14T12:05:58.714Z,3.52
2018-11-14T12:08:28.304Z,3.92
2018-11-14T12:10:57.973Z,3.37
2018-11-14T12:13:27.590Z,3.42
2018-11-14T12:15:56.939Z,3.60
2018-11-14T12:18:26.242Z,3.50
2018-11-14T12:20:55.834Z,3.08
2018-11-14T12:23:25.623Z,3.65
2018-11-14T12:25:54.984Z,4.62
2018-11-14T12:28:24.123Z,5.20
2018-11-14T12:30:53.459Z,4.65
2018-11-14T12:33:22.439Z,4.58
2018-11-14T12:35:51.660Z,2.77
2018-11-14T12:38:21.660Z,6.50
2018-11-14T12:40:51.212Z,4.87
2018-11-14T12:43:20.598Z,4.85
2018-11-14T12:45:49.733Z,4.97
2018-11-14T12:48:18.989Z,4.35
2018-11-14T12:50:48.034Z,3.83
2018-11-14T12:53:17.327Z,3.47
2018-11-14T12:55:46.298Z,3.80
2018-11-14T12:58:15.252Z,4.90
2018-11-14T13:00:44.849Z,6.55
2018-11-14T13:03:14.249Z,4.80
2018-11-14T13:05:43.645Z,5.12
2018-11-14T13:08:12.648Z,5.05
2018-11-14T13:10:41.788Z,5.17
2018-11-14T13:13:11.164Z,5.50
2018-11-14T13:15:40.306Z,5.30
2018-11-14T13:18:10.019Z,4.72
2018-11-14T13:20:39.085Z,5.85
2018-11-14T13:23:08.213Z,8.13
2018-11-14T13:25:37.241Z,5.17
2018-11-14T13:28:06.419Z,5.30
2018-11-14T13:30:35.708Z,4.62
2018-11-14T13:33:04.704Z,4.83
2018-11-14T13:35:33.601Z,5.20
2018-11-14T13:38:02.570Z,7.15
2018-11-14T13:40:31.662Z,4.40
2018-11-14T13:43:01.150Z,4.17
2018-11-14T13:45:30.270Z,6.05
2018-11-14T13:47:59.535Z,5.15
2018-11-14T13:50:28.860Z,9.23
2018-11-14T13:52:57.915Z,8.70
2018-11-14T13:55:27.033Z,5.42
2018-11-14T13:57:56.117Z,6.15
2018-11-14T14:00:25.260Z,6.60
2018-11-14T14:02:54.637Z,4.62
2018-11-14T14:05:24.625Z,4.40
2018-11-14T14:07:53.794Z,6.25
2018-11-14T14:10:23.093Z,6.83
2018-11-14T14:12:53.450Z,6.78
2018-11-14T14:15:24.393Z,7.80
2018-11-14T14:17:53.843Z,7.00
2018-11-14T14:20:24.143Z,7.87
2018-11-14T14:22:53.432Z,3.90
2018-11-14T14:25:23.063Z,6.85
2018-11-14T14:27:52.500Z,6.25
2018-11-14T14:30:22.578Z,7.20
2018-11-14T14:32:51.802Z,4.90
2018-11-14T14:35:21.851Z,5.78
2018-11-14T14:37:50.955Z,7.37
2018-11-14T14:40:21.252Z,6.40
2018-11-14T14:42:50.705Z,8.25
2018-11-14T14:45:21.206Z,7.20
2018-11-14T14:47:50.352Z,14.40
2018-11-14T14:50:20.471Z,17.25
2018-11-14T14:52:49.803Z,14.07
2018-11-14T14:55:20.815Z,20.05
2018-11-14T14:57:50.531Z,14.05
2018-11-14T15:00:22.745Z,12.78
2018-11-14T15:02:52.327Z,12.00
2018-11-14T15:05:21.690Z,14.90
2018-11-14T15:07:50.777Z,11.53
2018-11-14T15:10:21.147Z,10.43
2018-11-14T15:12:50.248Z,13.03
2018-11-14T15:15:19.779Z,12.18
2018-11-14T15:17:48.786Z,10.38
2018-11-14T15:20:20.477Z,11.68
2018-11-14T15:22:49.727Z,12.65
2018-11-14T15:25:20.116Z,9.73
2018-11-14T15:27:50.040Z,10.30
2018-11-14T15:30:23.048Z,12.10
2018-11-14T15:32:52.180Z,8.10
2018-11-14T15:35:21.346Z,5.97
2018-11-14T15:37:50.462Z,8.48
2018-11-14T15:40:20.417Z,9.53
2018-11-14T15:42:49.637Z,11.25
2018-11-14T15:45:20.456Z,8.58
2018-11-14T15:47:49.565Z,13.62
2018-11-14T15:50:20.216Z,10.58
2018-11-14T15:52:50.517Z,14.00
2018-11-14T15:55:20.239Z,9.18
2018-11-14T15:57:49.267Z,8.38
2018-11-14T16:00:21.403Z,11.35
2018-11-14T16:02:50.542Z,10.70
2018-11-14T16:05:20.726Z,12.58
2018-11-14T16:07:51.147Z,9.30
2018-11-14T16:10:21.493Z,7.40
2018-11-14T16:12:50.607Z,7.15
2018-11-14T16:15:23.729Z,7.92
2018-11-14T16:17:53.361Z,6.97
2018-11-14T16:20:24.133Z,7.90
2018-11-14T16:22:53.940Z,10.10
2018-11-14T16:25:24.031Z,12.60
2018-11-14T16:28:00.910Z,9.23
2018-11-14T16:30:32.777Z,10.23
2018-11-14T16:33:03.284Z,8.58
2018-11-14T16:35:32.556Z,7.90
2018-11-14T16:38:01.692Z,9.35
2018-11-14T16:40:32.117Z,8.55
2018-11-14T16:43:02.724Z,7.28
2018-11-14T16:45:31.935Z,7.40
2018-11-14T16:48:01.813Z,6.50
2018-11-14T16:50:31.396Z,6.08
2018-11-14T16:53:00.466Z,7.40
2018-11-14T16:55:29.511Z,9.05
2018-11-14T16:57:58.713Z,6.90
2018-11-14T17:00:29.988Z,11.15
2018-11-14T17:02:59.481Z,10.23
2018-11-14T17:05:29.705Z,9.23
2018-11-14T17:07:58.877Z,6.53
2018-11-14T17:10:28.195Z,8.65
2018-11-14T17:12:58.871Z,13.00
2018-11-14T17:15:28.388Z,14.90
2018-11-14T17:17:57.446Z,10.68
2018-11-14T17:20:26.533Z,9.70
2018-11-14T17:22:56.322Z,10.05
2018-11-14T17:25:25.843Z,14.07
2018-11-14T17:27:55.200Z,9.80
2018-11-14T17:30:25.559Z,11.73
2018-11-14T17:32:55.036Z,9.00
2018-11-14T17:35:24.353Z,13.48
2018-11-14T17:37:58.161Z,12.30
2018-11-14T17:40:29.414Z,11.22
2018-11-14T17:43:00.144Z,11.28
2018-11-14T17:45:31.350Z,15.32
2018-11-14T17:48:06.457Z,14.58
2018-11-14T17:50:36.531Z,14.20
2018-11-14T17:53:05.742Z,14.38
2018-11-14T17:55:35.145Z,13.80
2018-11-14T17:58:04.431Z,16.12
2018-11-14T18:00:33.949Z,18.90
2018-11-14T18:03:03.253Z,29.57
2018-11-14T18:05:32.564Z,28.23
2018-11-14T18:08:01.958Z,27.67
2018-11-14T18:10:32.634Z,27.37
2018-11-14T18:13:05.686Z,26.95
2018-11-14T18:15:59.032Z,36.48
2018-11-14T18:18:29.596Z,32.55
2018-11-14T18:21:02.451Z,37.67
2018-11-14T18:23:32.471Z,29.82
2018-11-14T18:26:04.757Z,28.15
2018-11-14T18:28:34.419Z,31.02
2018-11-14T18:31:03.395Z,38.25
2018-11-14T18:33:32.558Z,39.88
2018-11-14T18:36:01.555Z,42.93
2018-11-14T18:38:30.777Z,36.03
2018-11-14T18:40:59.725Z,39.25
2018-11-14T18:43:31.410Z,46.33
2018-11-14T18:46:01.467Z,47.70
2018-11-14T18:48:30.799Z,48.65
2018-11-14T18:51:00.545Z,46.90
2018-11-14T18:53:29.926Z,53.17
2018-11-14T18:55:59.137Z,51.85
2018-11-14T18:58:28.885Z,53.68
2018-11-14T19:00:57.903Z,50.33
2018-11-14T19:03:27.478Z,49.03
2018-11-14T19:05:56.648Z,49.03
2018-11-14T19:08:26.217Z,46.53
2018-11-14T19:10:55.449Z,46.40
2018-11-14T19:13:31.009Z,44.80
2018-11-14T19:16:00.092Z,39.85
2018-11-14T19:18:29.243Z,41.77
2018-11-14T19:20:58.239Z,37.53
2018-11-14T19:23:27.441Z,40.40
2018-11-14T19:25:56.681Z,38.33
2018-11-14T19:28:25.739Z,36.85
2018-11-14T19:30:54.978Z,44.98
2018-11-14T19:33:24.038Z,40.73
2018-11-14T19:35:53.544Z,37.83
2018-11-14T19:38:24.909Z,37.63
2018-11-14T19:40:54.187Z,37.98
2018-11-14T19:43:23.419Z,41.33
2018-11-14T19:45:52.697Z,39.88
2018-11-14T19:48:21.756Z,41.58
2018-11-14T19:50:50.873Z,40.75
2018-11-14T19:53:20.326Z,41.02
2018-11-14T19:55:49.529Z,44.42
2018-11-14T19:58:18.565Z,45.92
2018-11-14T20:00:47.903Z,47.83
2018-11-14T20:03:16.871Z,52.65
2018-11-14T20:05:47.864Z,44.13
2018-11-14T20:08:17.282Z,47.78
2018-11-14T20:10:46.911Z,45.45
2018-11-14T20:13:16.083Z,45.55
2018-11-14T20:15:45.817Z,46.02
2018-11-14T20:18:15.036Z,47.93
2018-11-14T20:20:44.112Z,44.88
2018-11-14T20:23:13.225Z,49.25
2018-11-14T20:25:42.988Z,45.45
2018-11-14T20:28:12.015Z,46.18
2018-11-14T20:30:41.021Z,46.05
2018-11-14T20:33:11.679Z,44.00
2018-11-14T20:35:40.964Z,43.20
2018-11-14T20:38:10.147Z,43.08
2018-11-14T20:40:40.933Z,41.73
2018-11-14T20:43:10.000Z,37.55
2018-11-14T20:45:39.127Z,43.02
2018-11-14T20:48:08.355Z,38.58
2018-11-14T20:50:37.469Z,32.95
2018-11-14T20:53:06.600Z,32.28
2018-11-14T20:55:35.945Z,32.25
2018-11-14T20:58:05.015Z,29.18
2018-11-14T21:00:35.478Z,30.37
2018-11-14T21:03:04.944Z,25.37
2018-11-14T21:05:34.030Z,28.30
2018-11-14T21:08:03.281Z,26.42
2018-11-14T21:10:33.638Z,26.30
2018-11-14T21:13:03.718Z,26.80
2018-11-14T21:15:35.050Z,26.95
2018-11-14T21:18:04.321Z,25.60
2018-11-14T21:20:34.086Z,26.97
2018-11-14T21:23:03.289Z,28.83
2018-11-14T21:25:32.660Z,25.77
2018-11-14T21:28:01.931Z,29.98
2018-11-14T21:30:31.281Z,25.65
2018-11-14T21:33:00.338Z,28.83
2018-11-14T21:35:31.208Z,26.80
2018-11-14T21:38:01.533Z,28.15
2018-11-14T21:40:30.580Z,26.12
2018-11-14T21:42:59.654Z,28.92
2018-11-14T21:45:29.219Z,27.07
2018-11-14T21:48:03.472Z,30.05
2018-11-14T21:50:33.008Z,32.13
2018-11-14T21:53:02.167Z,30.03
2018-11-14T21:55:31.229Z,28.27
2018-11-14T21:58:00.295Z,30.68
2018-11-14T22:00:33.869Z,30.15
2018-11-14T22:03:05.152Z,28.12
2018-11-14T22:05:34.751Z,28.02
2018-11-14T22:08:03.870Z,28.35
2018-11-14T22:10:33.732Z,27.05
2018-11-14T22:13:03.166Z,28.45
2018-11-14T22:15:33.131Z,26.55
2018-11-14T22:18:02.263Z,29.50
2018-11-14T22:20:31.337Z,26.20
2018-11-14T22:23:00.487Z,25.17
2018-11-14T22:25:30.141Z,28.62
2018-11-14T22:28:00.717Z,22.75
2018-11-14T22:30:31.757Z,31.33
2018-11-14T22:33:00.769Z,28.20
2018-11-14T22:35:31.044Z,30.45
2018-11-14T22:38:00.011Z,27.82
2018-11-14T22:40:30.345Z,28.83
2018-11-14T22:42:59.595Z,25.35
2018-11-14T22:45:30.995Z,29.07
2018-11-14T22:48:00.026Z,31.00
2018-11-14T22:50:30.190Z,29.95
2018-11-14T22:52:59.255Z,27.45
2018-11-14T22:55:28.218Z,29.40
2018-11-14T22:57:57.257Z,27.20
2018-11-14T23:00:28.432Z,30.12
2018-11-14T23:02:58.537Z,27.37
2018-11-14T23:05:28.136Z,28.07
2018-11-14T23:07:57.751Z,29.55
2018-11-14T23:10:27.718Z,28.70
2018-11-14T23:12:56.751Z,30.68
2018-11-14T23:15:27.140Z,26.95
2018-11-14T23:17:56.253Z,29.20
2018-11-14T23:20:25.391Z,28.15
2018-11-14T23:22:55.036Z,28.75
2018-11-14T23:25:24.576Z,30.10
2018-11-14T23:27:54.608Z,30.50
2018-11-14T23:30:24.644Z,29.00
2018-11-14T23:32:54.454Z,31.07
2018-11-14T23:35:27.822Z,27.42
2018-11-14T23:37:58.112Z,28.45
2018-11-14T23:40:27.507Z,28.70
2018-11-14T23:42:58.307Z,31.35
2018-11-14T23:45:28.156Z,30.32
2018-11-14T23:47:57.271Z,28.55
2018-11-14T23:50:27.519Z,30.80
2018-11-14T23:52:57.320Z,32.10
2018-11-14T23:55:27.029Z,33.02
2018-11-14T23:57:56.399Z,32.60
